Saint Paul Island, Canada
Current Conditions -  °F | °C
As of 4:00 AM on Monday 24 Nov 2014 (Local Time) from CWZB Reporting Station
Overcast Overcast  
Wind Chill: 23°   Ceiling: 3000
Heat Index: 33°   Visibility: 9mi
Dew Point: 21°   Wind: 15mph
Humidity: 63%   Direction: 300°WNW
Pressure: 30.24"   Gusts: NA
Location:  47.21°N, 60.14°W
Report Text: CWZB 240800Z AUTO 30013KT 9SM OVC030 00/M06 A3024 RMK SLP240 T00051059 WSI/SWOB
Loading
Personal Weather Stations






























Interactive Weather Map New forecast layout! Learn more

10-Day Weather Forecast

Advertisements
Track Severe Weather on mobile